地図

経路データ

SID SEASON NUMBER BASIN SUBBASIN NAME ISO_TIME NATURE LAT LON WMO_WIND WMO_PRES WMO_AGENCY TRACK_TYPE DIST2LAND LANDFALL IFLAG USA_AGENCY USA_ATCF_ID USA_LAT USA_LON USA_RECORD USA_STATUS USA_WIND USA_PRES USA_SSHS USA_R34_NE USA_R34_SE USA_R34_SW USA_R34_NW USA_R50_NE USA_R50_SE USA_R50_SW USA_R50_NW USA_R64_NE USA_R64_SE USA_R64_SW USA_R64_NW USA_POCI USA_ROCI USA_RMW USA_EYE TOKYO_LAT TOKYO_LON TOKYO_GRADE TOKYO_WIND TOKYO_PRES TOKYO_R50_DIR TOKYO_R50_LONG TOKYO_R50_SHORT TOKYO_R30_DIR TOKYO_R30_LONG TOKYO_R30_SHORT TOKYO_LAND CMA_LAT CMA_LON CMA_CAT CMA_WIND CMA_PRES HKO_LAT HKO_LON HKO_CAT HKO_WIND HKO_PRES NEWDELHI_LAT NEWDELHI_LON NEWDELHI_GRADE NEWDELHI_WIND NEWDELHI_PRES NEWDELHI_CI NEWDELHI_DP NEWDELHI_POCI REUNION_LAT REUNION_LON REUNION_TYPE REUNION_WIND REUNION_PRES REUNION_TNUM REUNION_CI REUNION_RMW REUNION_R34_NE REUNION_R34_SE REUNION_R34_SW REUNION_R34_NW REUNION_R50_NE REUNION_R50_SE REUNION_R50_SW REUNION_R50_NW REUNION_R64_NE REUNION_R64_SE REUNION_R64_SW REUNION_R64_NW BOM_LAT BOM_LON BOM_TYPE BOM_WIND BOM_PRES BOM_TNUM BOM_CI BOM_RMW BOM_R34_NE BOM_R34_SE BOM_R34_SW BOM_R34_NW BOM_R50_NE BOM_R50_SE BOM_R50_SW BOM_R50_NW BOM_R64_NE BOM_R64_SE BOM_R64_SW BOM_R64_NW BOM_ROCI BOM_POCI BOM_EYE BOM_POS_METHOD BOM_PRES_METHOD NADI_LAT NADI_LON NADI_CAT NADI_WIND NADI_PRES WELLINGTON_LAT WELLINGTON_LON WELLINGTON_WIND WELLINGTON_PRES DS824_LAT DS824_LON DS824_STAGE DS824_WIND DS824_PRES TD9636_LAT TD9636_LON TD9636_STAGE TD9636_WIND TD9636_PRES TD9635_LAT TD9635_LON TD9635_WIND TD9635_PRES TD9635_ROCI NEUMANN_LAT NEUMANN_LON NEUMANN_CLASS NEUMANN_WIND NEUMANN_PRES MLC_LAT MLC_LON MLC_CLASS MLC_WIND MLC_PRES USA_GUST BOM_GUST BOM_GUST_PER REUNION_GUST REUNION_GUST_PER USA_SEAHGT USA_SEARAD_NE USA_SEARAD_SE USA_SEARAD_SW USA_SEARAD_NW STORM_SPEED STORM_DIR
1986226N30276 1986 79 NA GM CHARLEY 1986-08-13 12:00:00 SS 30.1000 -84.0000 10 1009 hurdat_atl main 0 0 O_____________ hurdat_atl AL051986 30.1000 -84.0000 SD 10 1009 -2 7 353
1986226N30276 1986 79 NA NA CHARLEY 1986-08-13 15:00:00 SS 30.4600 -84.0373 main 0 0 P_____________ AL051986 30.4600 -84.0373 SD 10 1010 -2 7 0
1986226N30276 1986 79 NA NA CHARLEY 1986-08-13 18:00:00 SS 30.8000 -84.0000 10 1012 hurdat_atl main 0 0 O_____________ hurdat_atl AL051986 30.8000 -84.0000 SD 10 1012 -2 7 15
1986226N30276 1986 79 NA NA CHARLEY 1986-08-13 21:00:00 SS 31.1075 -83.8376 main 0 0 P_____________ AL051986 31.1075 -83.8376 SD 10 1012 -2 7 30
1986226N30276 1986 79 NA NA CHARLEY 1986-08-14 00:00:00 SS 31.4000 -83.6000 10 1013 hurdat_atl main 0 0 O_____________ hurdat_atl AL051986 31.4000 -83.6000 SD 10 1013 -2 7 34
1986226N30276 1986 79 NA NA CHARLEY 1986-08-14 03:00:00 SS 31.7074 -83.3649 main 0 0 P_____________ AL051986 31.7074 -83.3649 SD 10 1013 -2 7 35
1986226N30276 1986 79 NA NA CHARLEY 1986-08-14 06:00:00 SS 32.0000 -83.1000 10 1014 hurdat_atl main 0 0 O_____________ hurdat_atl AL051986 32.0000 -83.1000 SD 10 1014 -2 8 39
1986226N30276 1986 79 NA NA CHARLEY 1986-08-14 09:00:00 SS 32.3025 -82.8003 main 0 0 P_____________ AL051986 32.3025 -82.8003 SD 10 1014 -2 7 45
1986226N30276 1986 79 NA NA CHARLEY 1986-08-14 12:00:00 SS 32.5000 -82.5000 10 1015 hurdat_atl main 0 0 O_____________ hurdat_atl AL051986 32.5000 -82.5000 SD 10 1015 -2 5 67
1986226N30276 1986 79 NA NA CHARLEY 1986-08-14 15:00:00 SS 32.4947 -82.2647 main 0 0 P_____________ AL051986 32.4947 -82.2647 SD 10 1015 -2 4 103
1986226N30276 1986 79 NA NA CHARLEY 1986-08-14 18:00:00 SS 32.4000 -82.0000 10 1015 hurdat_atl main 0 0 O_____________ hurdat_atl AL051986 32.4000 -82.0000 SD 10 1015 -2 5 106
1986226N30276 1986 79 NA NA CHARLEY 1986-08-14 21:00:00 SS 32.3422 -81.6524 main 0 0 P_____________ AL051986 32.3422 -81.6524 SD 12 1014 -2 7 98
1986226N30276 1986 79 NA NA CHARLEY 1986-08-15 00:00:00 SS 32.3000 -81.2000 15 1013 hurdat_atl main 0 0 O_____________ hurdat_atl AL051986 32.3000 -81.2000 SD 15 1013 -2 9 93
1986226N30276 1986 79 NA NA CHARLEY 1986-08-15 03:00:00 SS 32.3003 -80.6152 main 0 0 P_____________ AL051986 32.3003 -80.6152 SD 15 1013 -2 10 90
1986226N30276 1986 79 NA NA CHARLEY 1986-08-15 06:00:00 SS 32.3000 -80.0000 15 1013 hurdat_atl main 33 33 O_____________ hurdat_atl AL051986 32.3000 -80.0000 SD 15 1013 -2 10 93
1986226N30276 1986 79 NA NA CHARLEY 1986-08-15 09:00:00 SS 32.2500 -79.4473 main 71 71 P_____________ AL051986 32.2500 -79.4473 SD 22 1011 -2 9 97
1986226N30276 1986 79 NA NA CHARLEY 1986-08-15 12:00:00 TS 32.2000 -79.0000 30 1009 hurdat_atl main 96 96 O_____________ hurdat_atl AL051986 32.2000 -79.0000 TD 30 1009 -1 6 96
1986226N30276 1986 79 NA NA CHARLEY 1986-08-15 15:00:00 TS 32.1847 -78.7051 main 110 110 P_____________ AL051986 32.1847 -78.7051 TD 32 1008 -1 4 90
1986226N30276 1986 79 NA NA CHARLEY 1986-08-15 18:00:00 TS 32.2000 -78.5000 35 1007 hurdat_atl main 122 122 O_____________ hurdat_atl AL051986 32.2000 -78.5000 TS 35 1007 0 4 81
1986226N30276 1986 79 NA NA CHARLEY 1986-08-15 21:00:00 TS 32.2425 -78.2775 main 136 136 P_____________ AL051986 32.2425 -78.2775 TS 37 1005 0 4 73
1986226N30276 1986 79 NA NA CHARLEY 1986-08-16 00:00:00 TS 32.3000 -78.1000 40 1004 hurdat_atl main 143 143 O_____________ hurdat_atl AL051986 32.3000 -78.1000 TS 40 1004 0 3 67
1986226N30276 1986 79 NA NA CHARLEY 1986-08-16 03:00:00 TS 32.3424 -77.9924 main 150 143 P_____________ AL051986 32.3424 -77.9924 TS 40 1003 0 2 59
1986226N30276 1986 79 NA NA CHARLEY 1986-08-16 06:00:00 TS 32.4000 -77.9000 40 1002 hurdat_atl main 150 150 O_____________ hurdat_atl AL051986 32.4000 -77.9000 TS 40 1002 0 2 55
1986226N30276 1986 79 NA NA CHARLEY 1986-08-16 09:00:00 TS 32.4850 -77.7500 main 152 147 P_____________ AL051986 32.4850 -77.7500 TS 42 1000 0 3 52
1986226N30276 1986 79 NA NA CHARLEY 1986-08-16 12:00:00 TS 32.6000 -77.6000 45 999 hurdat_atl main 149 138 O_____________ hurdat_atl AL051986 32.6000 -77.6000 TS 45 999 0 3 39
1986226N30276 1986 79 NA NA CHARLEY 1986-08-16 15:00:00 TS 32.7425 -77.4999 main 141 124 P_____________ AL051986 32.7425 -77.4999 TS 47 998 0 3 29
1986226N30276 1986 79 NA NA CHARLEY 1986-08-16 18:00:00 TS 32.9000 -77.4000 50 997 hurdat_atl main 124 119 O_____________ hurdat_atl AL051986 32.9000 -77.4000 TS 50 997 0 4 36
1986226N30276 1986 79 NA NA CHARLEY 1986-08-16 21:00:00 TS 33.0350 -77.2500 main 124 114 P_____________ AL051986 33.0350 -77.2500 TS 52 996 0 4 40
1986226N30276 1986 79 NA NA CHARLEY 1986-08-17 00:00:00 TS 33.2000 -77.1000 55 995 hurdat_atl main 114 106 O_____________ hurdat_atl AL051986 33.2000 -77.1000 TS 55 995 0 4 29
1986226N30276 1986 79 NA NA CHARLEY 1986-08-17 03:00:00 TS 33.4200 -76.9998 main 107 98 P_____________ AL051986 33.4200 -76.9998 TS 57 994 0 5 19
1986226N30276 1986 79 NA NA CHARLEY 1986-08-17 06:00:00 TS 33.7000 -76.9000 60 993 hurdat_atl main 99 78 O_____________ hurdat_atl AL051986 33.7000 -76.9000 TS 60 993 0 6 19
1986226N30276 1986 79 NA NA CHARLEY 1986-08-17 09:00:00 TS 34.0138 -76.7564 main 78 33 P_____________ AL051986 34.0138 -76.7564 TS 62 992 0 7 20
1986226N30276 1986 79 NA NA CHARLEY 1986-08-17 12:00:00 TS 34.4000 -76.6000 65 991 hurdat_atl main 33 0 O_____________ hurdat_atl AL051986 34.4000 -76.6000 HU 65 991 1 9 17
1986226N30276 1986 79 NA NA CHARLEY 1986-08-17 14:00:00 TS 34.7000 -76.5000 65 990 hurdat_atl main 0 0 O_____________ hurdat_atl AL051986 34.7000 -76.5000 L HU 65 990 1 10 17
1986226N30276 1986 79 NA NA CHARLEY 1986-08-17 15:00:00 TS 34.8641 -76.4342 main 0 0 P_____________ AL051986 34.8641 -76.4342 HU 65 989 1 11 19
1986226N30276 1986 79 NA NA CHARLEY 1986-08-17 18:00:00 TS 35.4000 -76.2000 65 988 hurdat_atl main 0 0 O_____________ hurdat_atl AL051986 35.4000 -76.2000 HU 65 988 1 12 18
1986226N30276 1986 79 NA NA CHARLEY 1986-08-17 21:00:00 TS 35.9595 -76.0092 main 14 0 P_____________ AL051986 35.9595 -76.0092 HU 67 987 1 11 16
1986226N30276 1986 79 NA NA CHARLEY 1986-08-18 00:00:00 TS 36.5000 -75.8000 70 987 hurdat_atl main 8 8 O_____________ hurdat_atl AL051986 36.5000 -75.8000 HU 70 987 1 11 20
1986226N30276 1986 79 NA NA CHARLEY 1986-08-18 03:00:00 TS 36.9721 -75.5518 main 28 28 P_____________ AL051986 36.9721 -75.5518 HU 67 988 1 10 28
1986226N30276 1986 79 NA NA CHARLEY 1986-08-18 06:00:00 TS 37.4000 -75.2000 65 990 hurdat_atl main 45 45 O_____________ hurdat_atl AL051986 37.4000 -75.2000 HU 65 990 1 11 38
1986226N30276 1986 79 NA NA CHARLEY 1986-08-18 09:00:00 TS 37.8072 -74.7169 main 62 54 P_____________ AL051986 37.8072 -74.7169 HU 62 991 0 12 47
1986226N30276 1986 79 NA NA CHARLEY 1986-08-18 12:00:00 TS 38.2000 -74.1000 60 992 hurdat_atl main 87 87 O_____________ hurdat_atl AL051986 38.2000 -74.1000 TS 60 992 0 13 52
1986226N30276 1986 79 NA NA CHARLEY 1986-08-18 15:00:00 TS 38.6072 -73.3946 main 125 123 P_____________ AL051986 38.6072 -73.3946 TS 60 993 0 14 56
1986226N30276 1986 79 NA NA CHARLEY 1986-08-18 18:00:00 TS 39.0000 -72.6000 60 994 hurdat_atl main 156 156 O_____________ hurdat_atl AL051986 39.0000 -72.6000 TS 60 994 0 15 59
1986226N30276 1986 79 NA NA CHARLEY 1986-08-18 21:00:00 TS 39.3570 -71.7715 main 169 169 P_____________ AL051986 39.3570 -71.7715 TS 57 995 0 15 62
1986226N30276 1986 79 NA NA CHARLEY 1986-08-19 00:00:00 TS 39.7000 -70.9000 55 997 hurdat_atl main 188 172 O_____________ hurdat_atl AL051986 39.7000 -70.9000 TS 55 997 0 15 63
1986226N30276 1986 79 NA NA CHARLEY 1986-08-19 03:00:00 TS 40.0648 -69.9925 main 166 159 P_____________ AL051986 40.0648 -69.9925 TS 52 998 0 15 63
1986226N30276 1986 79 NA NA CHARLEY 1986-08-19 06:00:00 TS 40.4000 -69.1000 50 999 hurdat_atl main 163 162 O_____________ hurdat_atl AL051986 40.4000 -69.1000 TS 50 999 0 14 65
1986226N30276 1986 79 NA NA CHARLEY 1986-08-19 09:00:00 TS 40.6715 -68.2914 main 180 180 P_____________ AL051986 40.6715 -68.2914 TS 47 999 0 13 68
1986226N30276 1986 79 NA NA CHARLEY 1986-08-19 12:00:00 TS 40.9000 -67.5000 45 1000 hurdat_atl main 226 226 O_____________ hurdat_atl AL051986 40.9000 -67.5000 TS 45 1000 0 13 70
1986226N30276 1986 79 NA NA CHARLEY 1986-08-19 15:00:00 TS 41.1219 -66.6648 main 279 244 P_____________ AL051986 41.1219 -66.6648 TS 45 1001 0 13 73
1986226N30276 1986 79 NA NA CHARLEY 1986-08-19 18:00:00 TS 41.3000 -65.8000 45 1002 hurdat_atl main 244 233 O_____________ hurdat_atl AL051986 41.3000 -65.8000 TS 45 1002 0 14 77
1986226N30276 1986 79 NA NA CHARLEY 1986-08-19 21:00:00 TS 41.4225 -64.8846 main 235 229 P_____________ AL051986 41.4225 -64.8846 TS 42 1002 0 14 82
1986226N30276 1986 79 NA NA CHARLEY 1986-08-20 00:00:00 TS 41.5000 -64.0000 40 1003 hurdat_atl main 246 246 O_____________ hurdat_atl AL051986 41.5000 -64.0000 TS 40 1003 0 12 84
1986226N30276 1986 79 NA NA CHARLEY 1986-08-20 03:00:00 TS 41.5552 -63.2869 main 267 267 P_____________ AL051986 41.5552 -63.2869 TS 40 1003 0 11 85
1986226N30276 1986 79 NA NA CHARLEY 1986-08-20 06:00:00 TS 41.6000 -62.5000 40 1004 hurdat_atl main 308 308 O_____________ hurdat_atl AL051986 41.6000 -62.5000 TS 40 1004 0 14 86
1986226N30276 1986 79 NA NA CHARLEY 1986-08-20 09:00:00 TS 41.6590 -61.3729 main 349 349 P_____________ AL051986 41.6590 -61.3729 TS 40 1004 0 17 87
1986226N30276 1986 79 NA NA CHARLEY 1986-08-20 12:00:00 TS 41.7000 -60.2000 40 1005 hurdat_atl main 391 391 O_____________ hurdat_atl AL051986 41.7000 -60.2000 TS 40 1005 0 16 88
1986226N30276 1986 79 NA NA CHARLEY 1986-08-20 15:00:00 TS 41.7133 -59.2625 main 415 415 P_____________ AL051986 41.7133 -59.2625 TS 40 1005 0 13 90
1986226N30276 1986 79 NA NA CHARLEY 1986-08-20 18:00:00 TS 41.7000 -58.4000 40 1005 hurdat_atl main 445 445 O_____________ hurdat_atl AL051986 41.7000 -58.4000 TS 40 1005 0 13 92
1986226N30276 1986 79 NA NA CHARLEY 1986-08-20 21:00:00 TS 41.6568 -57.4998 main 484 484 P_____________ AL051986 41.6568 -57.4998 TS 40 1002 0 13 94
1986226N30276 1986 79 NA NA CHARLEY 1986-08-21 00:00:00 ET 41.6000 -56.6000 40 1000 hurdat_atl main 539 539 O_____________ hurdat_atl AL051986 41.6000 -56.6000 EX 40 1000 -4 14 95
1986226N30276 1986 79 NA NA CHARLEY 1986-08-21 03:00:00 ET 41.5496 -55.6851 main 589 574 P_____________ AL051986 41.5496 -55.6851 EX 40 998 -4 13 94
1986226N30276 1986 79 NA NA CHARLEY 1986-08-21 06:00:00 ET 41.5000 -54.8000 40 997 hurdat_atl main 574 568 O_____________ hurdat_atl AL051986 41.5000 -54.8000 EX 40 997 -4 13 95
1986226N30276 1986 79 NA NA CHARLEY 1986-08-21 09:00:00 ET 41.4484 -54.0152 main 578 578 P_____________ AL051986 41.4484 -54.0152 EX 40 994 -4 12 95
1986226N30276 1986 79 NA NA CHARLEY 1986-08-21 12:00:00 ET 41.4000 -53.2000 40 992 hurdat_atl main 578 578 O_____________ hurdat_atl AL051986 41.4000 -53.2000 EX 40 992 -4 14 94
1986226N30276 1986 79 NA NA CHARLEY 1986-08-21 15:00:00 ET 41.3427 -52.2147 main 594 594 P_____________ AL051986 41.3427 -52.2147 EX 42 991 -4 15 94
1986226N30276 1986 79 NA NA CHARLEY 1986-08-21 18:00:00 ET 41.3000 -51.2000 45 991 hurdat_atl main 610 610 O_____________ hurdat_atl AL051986 41.3000 -51.2000 EX 45 991 -4 14 92
1986226N30276 1986 79 NA NA CHARLEY 1986-08-21 21:00:00 ET 41.2914 -50.2854 main 632 632 P_____________ AL051986 41.2914 -50.2854 EX 45 990 -4 13 90
1986226N30276 1986 79 NA NA CHARLEY 1986-08-22 00:00:00 ET 41.3000 -49.4000 45 990 hurdat_atl main 662 662 O_____________ hurdat_atl AL051986 41.3000 -49.4000 EX 45 990 -4 14 90
1986226N30276 1986 79 NA NA CHARLEY 1986-08-22 03:00:00 ET 41.2924 -48.4698 main 698 698 P_____________ AL051986 41.2924 -48.4698 EX 45 989 -4 13 90
1986226N30276 1986 79 NA NA CHARLEY 1986-08-22 06:00:00 ET 41.3000 -47.6000 45 989 hurdat_atl main 738 738 O_____________ hurdat_atl AL051986 41.3000 -47.6000 EX 45 989 -4 12 88
1986226N30276 1986 79 NA NA CHARLEY 1986-08-22 09:00:00 ET 41.3415 -46.8701 main 773 770 P_____________ AL051986 41.3415 -46.8701 EX 45 989 -4 11 85
1986226N30276 1986 79 NA NA CHARLEY 1986-08-22 12:00:00 ET 41.4000 -46.2000 45 989 hurdat_atl main 802 802 O_____________ hurdat_atl AL051986 41.4000 -46.2000 EX 45 989 -4 10 85
1986226N30276 1986 79 NA NA CHARLEY 1986-08-22 15:00:00 ET 41.4343 -45.5143 main 842 842 P_____________ AL051986 41.4343 -45.5143 EX 45 989 -4 11 85
1986226N30276 1986 79 NA NA CHARLEY 1986-08-22 18:00:00 ET 41.5000 -44.8000 45 989 hurdat_atl main 875 875 O_____________ hurdat_atl AL051986 41.5000 -44.8000 EX 45 989 -4 11 81
1986226N30276 1986 79 NA NA CHARLEY 1986-08-22 21:00:00 ET 41.6198 -44.0147 main 917 917 P_____________ AL051986 41.6198 -44.0147 EX 45 988 -4 12 76
1986226N30276 1986 79 NA NA CHARLEY 1986-08-23 00:00:00 ET 41.8000 -43.2000 45 988 hurdat_atl main 954 954 O_____________ hurdat_atl AL051986 41.8000 -43.2000 EX 45 988 -4 12 71
1986226N30276 1986 79 NA NA CHARLEY 1986-08-23 03:00:00 ET 42.0188 -42.4289 main 992 992 P_____________ AL051986 42.0188 -42.4289 EX 45 988 -4 13 67
1986226N30276 1986 79 NA NA CHARLEY 1986-08-23 06:00:00 ET 42.3000 -41.6000 45 989 hurdat_atl main 1028 1028 O_____________ hurdat_atl AL051986 42.3000 -41.6000 EX 45 989 -4 14 65
1986226N30276 1986 79 NA NA CHARLEY 1986-08-23 09:00:00 ET 42.6191 -40.6585 main 1073 1073 P_____________ AL051986 42.6191 -40.6585 EX 45 989 -4 16 65
1986226N30276 1986 79 NA NA CHARLEY 1986-08-23 12:00:00 ET 43.0000 -39.6000 45 989 hurdat_atl main 1128 1128 O_____________ hurdat_atl AL051986 43.0000 -39.6000 EX 45 989 -4 18 63
1986226N30276 1986 79 NA NA CHARLEY 1986-08-23 15:00:00 ET 43.4262 -38.4583 main 1184 1184 P_____________ AL051986 43.4262 -38.4583 EX 45 989 -4 20 63
1986226N30276 1986 79 NA NA CHARLEY 1986-08-23 18:00:00 ET 43.9000 -37.2000 45 989 hurdat_atl main 1253 1253 O_____________ hurdat_atl AL051986 43.9000 -37.2000 EX 45 989 -4 21 63
1986226N30276 1986 79 NA NA CHARLEY 1986-08-23 21:00:00 ET 44.3844 -35.8282 main 1335 1335 P_____________ AL051986 44.3844 -35.8282 EX 45 989 -4 22 63
1986226N30276 1986 79 NA NA CHARLEY 1986-08-24 00:00:00 ET 44.9000 -34.4000 45 990 hurdat_atl main 1420 1420 O_____________ hurdat_atl AL051986 44.9000 -34.4000 EX 45 990 -4 23 62
1986226N30276 1986 79 NA NA CHARLEY 1986-08-24 03:00:00 ET 45.4483 -32.9984 main 1509 1509 P_____________ AL051986 45.4483 -32.9984 EX 42 991 -4 22 61
1986226N30276 1986 79 NA NA CHARLEY 1986-08-24 06:00:00 ET 46.0000 -31.6000 40 992 hurdat_atl main 1596 1549 O_____________ hurdat_atl AL051986 46.0000 -31.6000 EX 40 992 -4 22 62
1986226N30276 1986 79 NA NA CHARLEY 1986-08-24 09:00:00 ET 46.4908 -30.1957 main 1543 1430 P_____________ AL051986 46.4908 -30.1957 EX 40 993 -4 22 63
1986226N30276 1986 79 NA NA CHARLEY 1986-08-24 12:00:00 ET 47.0000 -28.8000 40 995 hurdat_atl main 1423 1312 O_____________ hurdat_atl AL051986 47.0000 -28.8000 EX 40 995 -4 21 59
1986226N30276 1986 79 NA NA CHARLEY 1986-08-24 15:00:00 ET 47.5932 -27.5150 main 1305 1183 P_____________ AL051986 47.5932 -27.5150 EX 40 996 -4 22 58
1986226N30276 1986 79 NA NA CHARLEY 1986-08-24 18:00:00 ET 48.2000 -26.0000 40 997 hurdat_atl main 1176 1026 O_____________ hurdat_atl AL051986 48.2000 -26.0000 EX 40 997 -4 26 64
1986226N30276 1986 79 NA NA CHARLEY 1986-08-24 21:00:00 ET 48.7283 -23.9772 main 1020 844 P_____________ AL051986 48.7283 -23.9772 EX 40 998 -4 31 71
1986226N30276 1986 79 NA NA CHARLEY 1986-08-25 00:00:00 ET 49.2000 -21.6000 40 999 hurdat_atl main 838 662 O_____________ hurdat_atl AL051986 49.2000 -21.6000 EX 40 999 -4 33 75
1986226N30276 1986 79 NA NA CHARLEY 1986-08-25 03:00:00 ET 49.6215 -19.0414 main 649 469 P_____________ AL051986 49.6215 -19.0414 EX 40 999 -4 34 77
1986226N30276 1986 79 NA NA CHARLEY 1986-08-25 06:00:00 ET 50.0000 -16.4000 40 1000 hurdat_atl main 463 300 O_____________ hurdat_atl AL051986 50.0000 -16.4000 EX 40 1000 -4 34 78
1986226N30276 1986 79 NA NA CHARLEY 1986-08-25 09:00:00 ET 50.3547 -13.8218 main 282 134 P_____________ AL051986 50.3547 -13.8218 EX 40 997 -4 33 78
1986226N30276 1986 79 NA NA CHARLEY 1986-08-25 12:00:00 ET 50.7000 -11.4000 40 994 hurdat_atl main 130 46 O_____________ hurdat_atl AL051986 50.7000 -11.4000 EX 40 994 -4 30 77
1986226N30276 1986 79 NA NA CHARLEY 1986-08-25 15:00:00 ET 51.0401 -9.13307 main 57 44 P_____________ AL051986 51.0401 -9.13307 EX 45 991 -4 27 75
1986226N30276 1986 79 NA NA CHARLEY 1986-08-25 18:00:00 ET 51.4000 -7.20000 50 988 hurdat_atl main 65 29 O_____________ hurdat_atl AL051986 51.4000 -7.20000 EX 50 988 -4 23 71
1986226N30276 1986 79 NA NA CHARLEY 1986-08-25 21:00:00 ET 51.7948 -5.66262 main 29 0 P_____________ AL051986 51.7948 -5.66262 EX 47 984 -4 19 65
1986226N30276 1986 79 NA NA CHARLEY 1986-08-26 00:00:00 ET 52.2000 -4.40000 45 981 hurdat_atl main 0 0 O_____________ hurdat_atl AL051986 52.2000 -4.40000 EX 45 981 -4 17 64
1986226N30276 1986 79 NA NA CHARLEY 1986-08-26 03:00:00 ET 52.5561 -3.13755 main 0 0 P_____________ AL051986 52.5561 -3.13755 EX 45 980 -4 16 64
1986226N30276 1986 79 NA NA CHARLEY 1986-08-26 06:00:00 ET 52.9000 -2.00000 45 980 hurdat_atl main 0 0 O_____________ hurdat_atl AL051986 52.9000 -2.00000 EX 45 980 -4 15 62
1986226N30276 1986 79 NA NA CHARLEY 1986-08-26 09:00:00 ET 53.2483 -0.967694 main 0 0 P_____________ AL051986 53.2483 -0.967694 EX 45 981 -4 14 60
1986226N30276 1986 79 NA NA CHARLEY 1986-08-26 12:00:00 ET 53.6000 -2.82068e-10 45 982 hurdat_atl main 0 0 O_____________ hurdat_atl AL051986 53.6000 -0.00000 EX 45 982 -4 14 59
1986226N30276 1986 79 NA NA CHARLEY 1986-08-26 15:00:00 ET 53.9497 1.02357 main 66 66 P_____________ AL051986 53.9497 1.02357 EX 45 984 -4 14 59
1986226N30276 1986 79 NA NA CHARLEY 1986-08-26 18:00:00 ET 54.3000 2.00000 45 986 hurdat_atl main 137 137 O_____________ hurdat_atl AL051986 54.3000 2.00000 EX 45 986 -4 13 57
1986226N30276 1986 79 NA NA CHARLEY 1986-08-26 21:00:00 ET 54.6644 2.90292 main 204 204 P_____________ AL051986 54.6644 2.90292 EX 45 985 -4 12 55
1986226N30276 1986 79 NA NA CHARLEY 1986-08-27 00:00:00 ET 55.0000 3.70000 45 984 hurdat_atl main 227 224 O_____________ hurdat_atl AL051986 55.0000 3.70000 EX 45 984 -4 11 55
1986226N30276 1986 79 NA NA CHARLEY 1986-08-27 03:00:00 ET 55.2646 4.41903 main 234 194 P_____________ AL051986 55.2646 4.41903 EX 45 983 -4 9 56
1986226N30276 1986 79 NA NA CHARLEY 1986-08-27 06:00:00 ET 55.5000 5.00000 45 983 hurdat_atl main 194 163 O_____________ hurdat_atl AL051986 55.5000 5.00000 EX 45 983 -4 8 50
1986226N30276 1986 79 NA NA CHARLEY 1986-08-27 09:00:00 ET 55.7647 5.48264 main 163 148 P_____________ AL051986 55.7647 5.48264 EX 40 984 -4 7 42
1986226N30276 1986 79 NA NA CHARLEY 1986-08-27 12:00:00 ET 56.0000 5.80000 35 985 hurdat_atl main 148 132 O_____________ hurdat_atl AL051986 56.0000 5.80000 EX 35 985 -4 5 34
1986226N30276 1986 79 NA NA CHARLEY 1986-08-27 15:00:00 ET 56.1648 5.96080 main 132 130 P_____________ AL051986 56.1648 5.96080 EX 35 987 -4 3 20
1986226N30276 1986 79 NA NA CHARLEY 1986-08-27 18:00:00 ET 56.3000 6.00000 35 989 hurdat_atl main 130 128 O_____________ hurdat_atl AL051986 56.3000 6.00000 EX 35 989 -4 3 9
1986226N30276 1986 79 NA NA CHARLEY 1986-08-27 21:00:00 ET 56.4575 6.01518 main 128 128 P_____________ AL051986 56.4575 6.01518 EX 35 989 -4 3 0
1986226N30276 1986 79 NA NA CHARLEY 1986-08-28 00:00:00 ET 56.6000 6.00000 35 989 hurdat_atl main 128 128 O_____________ hurdat_atl AL051986 56.6000 6.00000 EX 35 989 -4 2 358
1986226N30276 1986 79 NA NA CHARLEY 1986-08-28 03:00:00 ET 56.7075 6.00000 main 129 129 P_____________ AL051986 56.7075 6.00000 EX 35 990 -4 2 8
1986226N30276 1986 79 NA NA CHARLEY 1986-08-28 06:00:00 ET 56.8000 6.00000 35 991 hurdat_atl main 131 131 O_____________ hurdat_atl AL051986 56.8000 6.00000 EX 35 991 -4 2 0
1986226N30276 1986 79 NA NA CHARLEY 1986-08-28 09:00:00 ET 56.9149 6.03741 main 134 125 P_____________ AL051986 56.9149 6.03741 EX 32 994 -4 2 8
1986226N30276 1986 79 NA NA CHARLEY 1986-08-28 12:00:00 ET 57.0000 6.00000 30 998 hurdat_atl main 125 125 O_____________ hurdat_atl AL051986 57.0000 6.00000 EX 30 998 -4 2 307
1986226N30276 1986 79 NA NA CHARLEY 1986-08-28 15:00:00 ET 57.0151 5.78741 main 130 130 P_____________ AL051986 57.0151 5.78741 EX 30 998 -4 3 270
1986226N30276 1986 79 NA NA CHARLEY 1986-08-28 18:00:00 ET 57.0000 5.50000 30 999 hurdat_atl main 138 138 O_____________ hurdat_atl AL051986 57.0000 5.50000 EX 30 999 -4 3 270
1986226N30276 1986 79 NA NA CHARLEY 1986-08-28 21:00:00 ET 57.0151 5.21259 main 147 147 P_____________ AL051986 57.0151 5.21259 EX 27 1000 -4 3 270
1986226N30276 1986 79 NA NA CHARLEY 1986-08-29 00:00:00 ET 57.0000 5.00000 25 1002 hurdat_atl main 154 154 O_____________ hurdat_atl AL051986 57.0000 5.00000 EX 25 1002 -4 2 235
1986226N30276 1986 79 NA NA CHARLEY 1986-08-29 03:00:00 ET 56.9224 4.96258 main 163 163 P_____________ AL051986 56.9224 4.96258 EX 22 1003 -4 2 172
1986226N30276 1986 79 NA NA CHARLEY 1986-08-29 06:00:00 ET 56.8000 5.00000 20 1004 hurdat_atl main 172 172 O_____________ hurdat_atl AL051986 56.8000 5.00000 EX 20 1004 -4 3 182
1986226N30276 1986 79 NA NA CHARLEY 1986-08-29 09:00:00 ET 56.6572 4.92410 main 185 185 P_____________ AL051986 56.6572 4.92410 EX 20 1004 -4 3 0
1986226N30276 1986 79 NA NA CHARLEY 1986-08-29 12:00:00 ET 56.5000 5.00000 20 1004 hurdat_atl main 189 171 O_____________ hurdat_atl AL051986 56.5000 5.00000 EX 20 1004 -4 4 144
1986226N30276 1986 79 NA NA CHARLEY 1986-08-29 15:00:00 ET 56.3266 5.35123 main 166 132 P_____________ AL051986 56.3266 5.35123 EX 17 1004 -4 6 118
1986226N30276 1986 79 NA NA CHARLEY 1986-08-29 18:00:00 ET 56.2000 6.00000 15 1004 hurdat_atl main 132 79 O_____________ hurdat_atl AL051986 56.2000 6.00000 EX 15 1004 -4 9 100
1986226N30276 1986 79 NA NA CHARLEY 1986-08-29 21:00:00 ET 56.1725 6.92346 main 79 18 P_____________ AL051986 56.1725 6.92346 EX 15 1005 -4 11 90
1986226N30276 1986 79 NA NA CHARLEY 1986-08-30 00:00:00 ET 56.2000 8.00000 15 1006 hurdat_atl main 12 O_____________ hurdat_atl AL051986 56.2000 8.00000 EX 15 1006 -4 12 87

IBTrACS Databaseについて

本データベースは、米国NOAAが公開する1842年以降の世界の熱帯低気圧のベストトラックデータアーカイブInternational Best Track Archive for Climate Stewardship (IBTrACS)を、ウェブで閲覧しやすい形式に変換したものです。

最終更新日:2021-10-21